Time;durP1;ratioP1;P1;durP2;ratioP2;P2;SDS_P1;SDS_P2;PMS_P1;PMS_P2;Temp;Humidity;BMP_temperature;BMP_pressure;BME280_temperature;BME280_humidity;BME280_pressure;Samples;Min_cycle;Max_cycle;Signal;HPM_P1;HPM_P2
2022/05/10 00:01:26;;;;;;;11.53;6.50;;;;;;;16.41;100.00;101748.02;1936415;74;21132;-72
2022/05/10 00:03:54;;;;;;;9.15;6.15;;;;;;;16.33;100.00;101762.33;1936559;74;21070;-72
2022/05/10 00:06:21;;;;;;;7.47;5.20;;;;;;;16.20;100.00;101771.45;1906978;74;21121;-72
2022/05/10 00:08:49;;;;;;;9.68;6.15;;;;;;;16.20;100.00;101785.71;1936525;74;21084;-72
2022/05/10 00:11:16;;;;;;;9.73;5.97;;;;;;;16.22;100.00;101792.16;1941061;72;21460;-72
2022/05/10 00:13:44;;;;;;;10.60;6.25;;;;;;;16.20;100.00;101809.47;1948638;72;21022;-72
2022/05/10 00:16:14;;;;;;;7.80;5.33;;;;;;;16.15;100.00;101828.91;1936677;73;21503;-72
2022/05/10 00:18:43;;;;;;;8.60;5.55;;;;;;;16.14;100.00;101844.05;1936497;73;21035;-72
2022/05/10 00:21:11;;;;;;;9.90;6.08;;;;;;;16.14;100.00;101854.41;1936872;74;21034;-72
2022/05/10 00:23:39;;;;;;;13.78;7.05;;;;;;;16.01;100.00;101864.38;1936607;72;21031;-72
2022/05/10 00:26:06;;;;;;;10.08;6.37;;;;;;;16.06;100.00;101871.30;1936593;73;21048;-72
2022/05/10 00:28:33;;;;;;;11.95;6.97;;;;;;;16.11;100.00;101877.32;1936565;73;21541;-72
2022/05/10 00:31:01;;;;;;;9.35;6.30;;;;;;;16.18;100.00;101883.78;1936574;73;21051;-71
2022/05/10 00:33:30;;;;;;;8.35;6.45;;;;;;;16.15;100.00;101885.95;1936645;73;21607;-72
2022/05/10 00:35:58;;;;;;;9.03;5.80;;;;;;;16.09;100.00;101883.38;1936055;73;21058;-72
2022/05/10 00:38:29;;;;;;;9.08;6.05;;;;;;;16.02;100.00;101876.05;1934599;73;21054;-72
2022/05/10 00:40:56;;;;;;;10.10;7.37;;;;;;;15.95;100.00;101876.91;1927210;73;21081;-72
2022/05/10 00:43:32;;;;;;;12.93;6.45;;;;;;;15.92;100.00;101872.56;1936386;73;21094;-71
2022/05/10 00:46:03;;;;;;;9.50;5.80;;;;;;;15.88;100.00;101866.95;1935928;73;21062;-72
2022/05/10 00:48:33;;;;;;;8.98;6.08;;;;;;;15.84;100.00;101867.37;1936608;74;21072;-72
2022/05/10 00:51:07;;;;;;;9.95;5.83;;;;;;;15.57;100.00;101855.28;1935611;73;22389;-72
2022/05/10 00:53:49;;;;;;;7.30;5.47;;;;;;;15.55;100.00;101863.47;1932529;73;21003;-72
2022/05/10 00:56:20;;;;;;;8.15;5.42;;;;;;;15.51;100.00;101866.92;1936517;73;21007;-72
2022/05/10 00:59:02;;;;;;;7.58;5.42;;;;;;;15.47;100.00;101869.50;1931674;74;21082;-72
2022/05/10 01:01:34;;;;;;;8.23;5.40;;;;;;;15.43;100.00;101873.39;1936694;74;21157;-72
2022/05/10 01:04:20;;;;;;;8.88;4.97;;;;;;;15.50;100.00;101862.19;1935606;73;21141;-71
2022/05/10 01:07:03;;;;;;;7.97;4.75;;;;;;;15.60;100.00;101860.47;1933097;73;21391;-72
2022/05/10 01:09:51;;;;;;;8.23;5.05;;;;;;;15.67;100.00;101850.52;1925903;74;21132;-72
2022/05/10 01:12:25;;;;;;;8.43;5.20;;;;;;;15.71;100.00;101839.29;1951462;72;21070;-71
2022/05/10 01:14:55;;;;;;;8.23;4.97;;;;;;;15.73;100.00;101831.10;1936849;74;21043;-71
2022/05/10 01:17:23;;;;;;;7.50;4.83;;;;;;;15.76;100.00;101818.57;1936785;74;21542;-71
2022/05/10 01:19:51;;;;;;;8.83;4.95;;;;;;;15.70;100.00;101803.02;1936383;74;21169;-71
2022/05/10 01:22:42;;;;;;;6.85;5.17;;;;;;;15.76;100.00;101790.49;1936717;73;21202;-71
2022/05/10 01:25:13;;;;;;;7.08;5.08;;;;;;;15.81;100.00;101776.67;1935838;74;21109;-71
2022/05/10 01:28:12;;;;;;;9.48;5.53;;;;;;;15.74;100.00;101758.14;1936894;73;21088;-71
2022/05/10 01:30:40;;;;;;;6.90;4.75;;;;;;;15.74;100.00;101749.06;1912965;74;21038;-71
2022/05/10 01:36:04;;;;;;;8.95;5.45;;;;;;;15.72;100.00;101730.06;1926657;74;21602;-73
2022/05/10 01:38:54;;;;;;;7.70;5.17;;;;;;;15.65;100.00;101720.14;1936532;73;21040;-71
2022/05/10 01:41:40;;;;;;;8.50;5.95;;;;;;;15.73;100.00;101717.53;1936257;74;21163;-71
2022/05/10 01:44:19;;;;;;;6.95;4.95;;;;;;;15.68;100.00;101706.31;1936471;73;21108;-72
2022/05/10 01:46:48;;;;;;;8.58;6.20;;;;;;;15.64;100.00;101695.53;1936373;73;21015;-72
2022/05/10 01:49:25;;;;;;;8.10;5.60;;;;;;;15.57;100.00;101692.10;1936531;74;21475;-71
2022/05/10 01:51:58;;;;;;;12.23;6.15;;;;;;;15.57;100.00;101683.88;1935286;74;21022;-71
2022/05/10 01:54:43;;;;;;;8.40;5.53;;;;;;;15.57;100.00;101685.63;1936141;73;21120;-72
2022/05/10 01:57:13;;;;;;;10.98;6.70;;;;;;;15.48;100.00;101681.31;1913240;74;21034;-72
2022/05/10 01:59:44;;;;;;;10.55;6.78;;;;;;;15.45;100.00;101681.31;1936714;74;21038;-71
2022/05/10 02:02:12;;;;;;;10.93;6.50;;;;;;;15.45;100.00;101672.25;1935103;74;21023;-72
2022/05/10 02:04:41;;;;;;;8.53;5.58;;;;;;;15.40;100.00;101672.28;1936704;73;21043;-72
2022/05/10 02:07:14;;;;;;;10.38;6.05;;;;;;;15.43;100.00;101663.64;1936150;73;21038;-71
2022/05/10 02:09:45;;;;;;;9.55;6.08;;;;;;;15.35;100.00;101662.34;1932579;73;21104;-71
2022/05/10 02:12:24;;;;;;;9.88;5.87;;;;;;;15.39;100.00;101661.47;1936428;72;21094;-71
2022/05/10 02:15:19;;;;;;;9.03;5.87;;;;;;;15.33;100.00;101657.61;1936458;73;21119;-71
2022/05/10 02:17:51;;;;;;;9.15;5.03;;;;;;;15.33;100.00;101648.55;1936134;74;21456;-71
2022/05/10 02:20:22;;;;;;;10.60;5.80;;;;;;;15.34;100.00;101654.16;1913202;74;21464;-71
2022/05/10 02:22:58;;;;;;;8.45;5.72;;;;;;;15.41;100.00;101652.41;1908973;74;21026;-72
2022/05/10 02:25:28;;;;;;;7.95;5.70;;;;;;;15.28;100.00;101647.67;1921474;73;21125;-72
2022/05/10 02:27:59;;;;;;;8.60;5.92;;;;;;;15.21;100.00;101641.23;1936671;73;21030;-71
2022/05/10 02:30:29;;;;;;;7.72;5.03;;;;;;;15.29;100.00;101641.66;1936692;73;21098;-72
2022/05/10 02:33:09;;;;;;;10.08;6.05;;;;;;;15.33;100.00;101636.90;1912776;74;21011;-72
2022/05/10 02:35:45;;;;;;;10.08;5.40;;;;;;;15.19;100.00;101629.16;1936674;74;21122;-72
2022/05/10 02:38:14;;;;;;;12.75;6.10;;;;;;;15.17;100.00;101634.33;1935908;73;21093;-71
2022/05/10 02:40:43;;;;;;;10.68;5.53;;;;;;;15.17;100.00;101634.75;1922386;73;21076;-71
2022/05/10 02:43:13;;;;;;;10.25;5.37;;;;;;;15.23;100.00;101625.70;1951394;72;21025;-72
2022/05/10 02:45:42;;;;;;;9.55;5.90;;;;;;;15.12;100.00;101616.66;1951550;72;21580;-72
2022/05/10 02:48:24;;;;;;;7.33;5.20;;;;;;;15.09;100.00;101620.09;1955697;72;21058;-72
2022/05/10 02:50:51;;;;;;;7.45;5.03;;;;;;;15.04;100.00;101613.19;1927925;73;21103;-71
2022/05/10 02:53:19;;;;;;;7.42;4.90;;;;;;;15.03;100.00;101611.05;1955894;73;21002;-72
2022/05/10 02:55:50;;;;;;;14.25;6.20;;;;;;;15.04;100.00;101610.17;1955789;72;21136;-71
2022/05/10 02:58:21;;;;;;;7.65;4.67;;;;;;;14.96;100.00;101607.61;1954218;72;21017;-72
2022/05/10 03:00:50;;;;;;;11.30;5.20;;;;;;;14.98;100.00;101608.03;1951050;73;21124;-71
2022/05/10 03:03:19;;;;;;;6.53;4.35;;;;;;;15.00;100.00;101607.58;1951606;72;21045;-72
2022/05/10 03:05:46;;;;;;;8.10;5.12;;;;;;;14.96;100.00;101602.44;1924861;72;21112;-72
2022/05/10 03:08:14;;;;;;;8.50;5.72;;;;;;;14.95;100.00;101605.86;1951219;73;21013;-72
2022/05/10 03:10:41;;;;;;;6.35;4.72;;;;;;;14.84;100.00;101594.69;1951465;72;21081;-72
2022/05/10 03:13:09;;;;;;;9.13;5.92;;;;;;;14.83;100.00;101605.45;1955380;72;21030;-71
2022/05/10 03:15:36;;;;;;;7.40;4.95;;;;;;;14.86;100.00;101602.00;1955876;73;21237;-72
2022/05/10 03:18:03;;;;;;;8.10;4.50;;;;;;;14.88;100.00;101595.11;1956185;73;21131;-72
2022/05/10 03:20:31;;;;;;;7.47;4.58;;;;;;;14.87;100.00;101595.95;1956099;72;21020;-71
2022/05/10 03:22:59;;;;;;;7.03;4.47;;;;;;;14.69;100.00;101596.36;1955459;73;21092;-72
2022/05/10 03:25:28;;;;;;;6.25;4.28;;;;;;;14.63;100.00;101596.34;1956029;72;21138;-71
2022/05/10 03:27:58;;;;;;;4.97;4.08;;;;;;;14.68;100.00;101603.70;1956183;73;21099;-72
2022/05/10 03:30:26;;;;;;;7.95;4.28;;;;;;;14.63;100.00;101605.84;1926424;73;21104;-71
2022/05/10 03:32:53;;;;;;;7.67;5.17;;;;;;;14.63;100.00;101612.31;1956198;72;21042;-71
2022/05/10 03:35:21;;;;;;;5.42;4.05;;;;;;;14.65;100.00;101620.50;1955614;72;21148;-72
2022/05/10 03:37:49;;;;;;;6.78;4.08;;;;;;;14.73;100.00;101612.73;1956235;73;21455;-72
2022/05/10 03:40:17;;;;;;;5.70;4.00;;;;;;;14.83;100.00;101614.92;1927765;73;21049;-72
2022/05/10 03:42:47;;;;;;;7.08;4.22;;;;;;;14.77;100.00;101612.36;1924158;72;21057;-71
2022/05/10 03:45:16;;;;;;;5.40;3.77;;;;;;;14.80;100.00;101605.90;1955191;72;21475;-72
2022/05/10 03:47:43;;;;;;;7.33;4.67;;;;;;;14.78;100.00;101607.61;1956094;72;21122;-72
2022/05/10 03:50:11;;;;;;;6.45;4.40;;;;;;;14.74;100.00;101608.44;1954186;72;21470;-71
2022/05/10 03:52:40;;;;;;;6.97;4.20;;;;;;;14.68;100.00;101617.05;1951804;72;21114;-71
2022/05/10 03:55:10;;;;;;;6.70;3.90;;;;;;;14.51;100.00;101619.20;1956027;72;21148;-72
2022/05/10 03:57:38;;;;;;;5.55;4.00;;;;;;;14.61;100.00;101628.25;1955393;73;21037;-72
2022/05/10 04:00:08;;;;;;;8.35;4.75;;;;;;;14.55;100.00;101632.98;1958466;73;21026;-71
2022/05/10 04:02:36;;;;;;;5.80;4.60;;;;;;;14.63;100.00;101629.13;1955492;73;21082;-72
2022/05/10 04:05:04;;;;;;;6.25;3.75;;;;;;;14.61;100.00;101635.59;1955977;73;21038;-71
2022/05/10 04:07:31;;;;;;;4.80;3.55;;;;;;;14.63;100.00;101642.90;1955707;73;21018;-71
2022/05/10 04:09:59;;;;;;;4.78;2.98;;;;;;;14.62;100.00;101640.31;1956044;73;21042;-71
2022/05/10 04:12:26;;;;;;;6.95;3.52;;;;;;;14.62;100.00;101634.72;1972234;72;21073;-72
2022/05/10 04:14:54;;;;;;;5.30;3.27;;;;;;;14.57;100.00;101636.45;1955779;73;21042;-71
2022/05/10 04:17:22;;;;;;;6.92;3.50;;;;;;;14.55;100.00;101636.44;1955826;72;21083;-72
2022/05/10 04:19:50;;;;;;;6.92;3.27;;;;;;;14.56;100.00;101636.02;1955574;72;21061;-71
2022/05/10 04:22:18;;;;;;;12.53;3.62;;;;;;;14.45;100.00;101634.27;1953089;72;21443;-71
2022/05/10 04:24:45;;;;;;;4.58;3.27;;;;;;;14.45;100.00;101634.27;1955324;73;21160;-72
2022/05/10 04:27:13;;;;;;;5.20;3.17;;;;;;;14.52;100.00;101636.87;1951415;72;21080;-72
2022/05/10 04:29:40;;;;;;;7.20;3.12;;;;;;;14.56;100.00;101638.61;1951290;72;21015;-72
2022/05/10 04:32:08;;;;;;;4.70;3.33;;;;;;;14.54;100.00;101634.72;1951048;72;21029;-72
2022/05/10 04:34:35;;;;;;;5.25;3.00;;;;;;;14.49;100.00;101640.30;1954517;72;21130;-72
2022/05/10 04:37:03;;;;;;;4.53;2.92;;;;;;;14.50;100.00;101639.45;1951256;72;21013;-72
2022/05/10 04:41:24;;;;;;;7.20;3.27;;;;;;;14.50;100.00;101634.28;1951709;72;21101;-72
2022/05/10 04:41:59;;;;;;;6.28;2.87;;;;;;;14.44;100.00;101640.30;1956145;72;21053;-71
2022/05/10 04:44:27;;;;;;;6.28;3.20;;;;;;;14.39;100.00;101643.73;1947693;73;21175;-72
2022/05/10 04:46:54;;;;;;;4.37;3.30;;;;;;;14.31;100.00;101645.87;1956057;73;21365;-71
2022/05/10 04:49:21;;;;;;;3.87;2.85;;;;;;;14.29;100.00;101657.06;1955929;72;21069;-72
2022/05/10 04:51:49;;;;;;;3.72;2.70;;;;;;;14.33;100.00;101660.09;1927948;72;21082;-72
2022/05/10 04:54:16;;;;;;;5.25;3.08;;;;;;;14.36;100.00;101674.33;1950936;72;21048;-72
2022/05/10 04:56:44;;;;;;;3.65;2.80;;;;;;;14.24;100.00;101676.43;1951437;72;21018;-72
2022/05/10 04:59:11;;;;;;;4.12;2.58;;;;;;;14.28;100.00;101689.80;1925810;72;21045;-72
2022/05/10 05:01:38;;;;;;;4.75;3.10;;;;;;;14.21;100.00;101703.55;1956006;72;21069;-72
2022/05/10 05:04:06;;;;;;;3.80;3.02;;;;;;;14.11;100.00;101706.52;1956039;72;21055;-72
2022/05/10 05:06:37;;;;;;;5.67;2.90;;;;;;;14.18;100.00;101731.54;1956090;72;21044;-72
2022/05/10 05:09:03;;;;;;;4.67;3.10;;;;;;;14.28;100.00;101750.98;1955961;72;21475;-72
2022/05/10 05:11:31;;;;;;;4.08;3.33;;;;;;;14.40;100.00;101763.97;1955857;73;21053;-72
2022/05/10 05:13:58;;;;;;;3.92;2.72;;;;;;;14.55;100.00;101774.79;1953624;72;21042;-72
2022/05/10 05:16:25;;;;;;;4.40;3.05;;;;;;;14.72;100.00;101783.03;1955890;73;21033;-72
2022/05/10 05:18:53;;;;;;;3.55;2.90;;;;;;;14.79;100.00;101786.11;1954814;72;21019;-72
2022/05/10 05:21:20;;;;;;;3.95;2.90;;;;;;;14.95;100.00;101785.70;1953847;72;21513;-72
2022/05/10 05:23:48;;;;;;;5.17;2.52;;;;;;;15.14;100.00;101780.98;1956077;72;21112;-72
2022/05/10 05:26:15;;;;;;;5.47;3.12;;;;;;;15.15;100.00;101778.86;1956043;73;21042;-72
2022/05/10 05:28:43;;;;;;;8.30;3.20;;;;;;;15.13;100.00;101762.45;1956026;72;21147;-72
2022/05/10 05:31:12;;;;;;;4.97;2.92;;;;;;;15.24;100.00;101752.97;1955948;72;21033;-72
2022/05/10 05:33:40;;;;;;;4.65;3.65;;;;;;;15.30;100.00;101747.80;1955691;72;21111;-72
2022/05/10 05:36:07;;;;;;;6.80;4.12;;;;;;;15.25;100.00;101740.45;1955810;73;21135;-72
2022/05/10 05:38:35;;;;;;;5.87;4.08;;;;;;;15.17;100.00;101733.11;1955787;73;21034;-71
2022/05/10 05:41:02;;;;;;;6.20;3.58;;;;;;;15.14;100.00;101723.62;1956268;72;21033;-75
2022/05/10 05:43:30;;;;;;;5.97;3.60;;;;;;;15.15;100.00;101722.75;1963008;73;21115;-72
2022/05/10 05:45:57;;;;;;;6.85;4.15;;;;;;;15.15;100.00;101721.91;1962989;72;21061;-72
2022/05/10 05:48:25;;;;;;;7.20;3.75;;;;;;;15.11;100.00;101715.84;1958244;72;22521;-72
2022/05/10 05:50:52;;;;;;;5.40;4.25;;;;;;;15.09;100.00;101709.83;1958521;72;21074;-72
2022/05/10 05:53:19;;;;;;;7.78;4.25;;;;;;;15.15;100.00;101713.69;1962907;72;21033;-72
2022/05/10 05:55:48;;;;;;;11.68;5.20;;;;;;;15.21;100.00;101712.41;1962326;72;21498;-72
2022/05/10 05:58:17;;;;;;;7.28;4.40;;;;;;;15.27;100.00;101707.67;1963086;73;21072;-71
2022/05/10 06:00:44;;;;;;;6.47;3.85;;;;;;;15.38;100.00;101714.13;1962865;71;21006;-72
2022/05/10 06:03:12;;;;;;;6.15;4.22;;;;;;;15.38;100.00;101708.95;1963025;73;21010;-72
2022/05/10 06:05:39;;;;;;;6.50;4.10;;;;;;;15.41;100.00;101708.95;1962645;71;21156;-72
2022/05/10 06:08:09;;;;;;;7.80;4.87;;;;;;;15.44;100.00;101712.84;1923938;73;21030;-72
2022/05/10 06:10:37;;;;;;;5.67;3.72;;;;;;;15.44;100.00;101714.56;1958368;72;21095;-72
2022/05/10 06:13:04;;;;;;;6.30;3.98;;;;;;;15.59;100.00;101709.78;1962020;71;21100;-72
2022/05/10 06:15:32;;;;;;;7.97;3.47;;;;;;;15.59;100.00;101702.01;1962800;73;21134;-72
2022/05/10 06:17:59;;;;;;;8.13;3.83;;;;;;;15.65;100.00;101705.90;1962681;73;21104;-72
2022/05/10 06:20:27;;;;;;;7.40;3.77;;;;;;;15.78;100.00;101711.05;1963060;72;21037;-72
2022/05/10 06:22:55;;;;;;;6.75;3.27;;;;;;;15.85;100.00;101693.33;1962988;72;21193;-72
2022/05/10 06:25:24;;;;;;;6.05;3.60;;;;;;;15.86;100.00;101688.56;1963020;72;21514;-72
2022/05/10 06:27:53;;;;;;;5.05;3.15;;;;;;;16.02;100.00;101684.66;1962622;72;21018;-72
2022/05/10 06:30:21;;;;;;;6.97;3.55;;;;;;;15.99;100.00;101676.47;1963066;71;21037;-72
2022/05/10 06:32:49;;;;;;;6.03;3.45;;;;;;;16.06;100.00;101666.51;1962772;72;21083;-72
2022/05/10 06:35:18;;;;;;;6.03;3.52;;;;;;;16.20;100.00;101658.66;1962549;71;21069;-72
2022/05/10 06:40:31;;;;;;;4.05;2.40;;;;;;;16.65;100.00;101647.16;1963057;72;21575;-72
2022/05/10 06:42:59;;;;;;;4.42;2.55;;;;;;;16.97;100.00;101622.67;1955409;72;21049;-72
2022/05/10 06:45:27;;;;;;;4.30;3.10;;;;;;;17.24;100.00;101606.45;1924869;72;21479;-72
2022/05/10 06:47:55;;;;;;;7.65;2.72;;;;;;;17.55;100.00;101590.95;1924265;73;21435;-72
2022/05/10 06:50:24;;;;;;;5.25;3.50;;;;;;;17.54;100.00;101568.42;1916878;73;21001;-72
2022/05/10 06:52:54;;;;;;;8.53;3.42;;;;;;;17.87;100.00;101548.52;1917262;73;21094;-72
2022/05/10 06:55:23;;;;;;;7.12;3.25;;;;;;;17.85;100.00;101534.24;1917135;73;21057;-72
2022/05/10 06:57:51;;;;;;;4.58;2.92;;;;;;;18.05;100.00;101522.27;1916935;73;21552;-72
2022/05/10 07:00:20;;;;;;;5.10;2.80;;;;;;;18.07;100.00;101516.17;1917335;73;21127;-72
2022/05/10 07:02:47;;;;;;;5.28;3.22;;;;;;;18.54;100.00;101499.39;1916681;73;21029;-72
2022/05/10 07:05:16;;;;;;;7.10;3.55;;;;;;;18.77;100.00;101493.79;1917365;73;21119;-72
2022/05/10 07:07:43;;;;;;;5.60;3.20;;;;;;;19.03;100.00;101496.32;1916461;73;21037;-72
2022/05/10 07:10:12;;;;;;;8.55;4.00;;;;;;;18.87;100.00;101480.59;1917297;73;21087;-72
2022/05/10 07:12:41;;;;;;;9.63;4.25;;;;;;;18.85;100.00;101483.69;1944033;72;21119;-72
2022/05/10 07:15:11;;;;;;;5.60;3.37;;;;;;;18.73;100.00;101483.45;1919750;73;21068;-72
2022/05/10 07:17:38;;;;;;;6.70;3.92;;;;;;;18.60;100.00;101481.52;1918117;73;21021;-72
2022/05/10 07:20:08;;;;;;;6.30;4.08;;;;;;;18.83;100.00;101484.55;1917118;73;21031;-72
2022/05/10 07:22:36;;;;;;;9.90;4.33;;;;;;;19.19;100.00;101476.52;1917280;73;21431;-72
2022/05/10 07:25:05;;;;;;;10.15;5.35;;;;;;;19.03;100.00;101469.44;1916684;73;21097;-72
2022/05/10 07:27:32;;;;;;;8.70;5.22;;;;;;;19.07;100.00;101469.83;1933339;72;21557;-72
2022/05/10 07:30:00;;;;;;;10.80;5.90;;;;;;;18.78;100.00;101462.96;1924804;72;21104;-72
2022/05/10 07:32:27;;;;;;;11.43;5.10;;;;;;;18.52;100.00;101463.02;1951488;72;21037;-72
2022/05/10 07:34:55;;;;;;;8.78;5.37;;;;;;;19.20;100.00;101467.80;1951284;72;21112;-72
2022/05/10 07:37:22;;;;;;;8.23;4.65;;;;;;;19.28;100.00;101468.96;1951351;72;21094;-72
2022/05/10 07:39:49;;;;;;;9.13;5.10;;;;;;;19.30;100.00;101460.22;1921924;73;21070;-72
2022/05/10 07:42:17;;;;;;;10.90;5.15;;;;;;;18.90;100.00;101461.01;1918998;72;21111;-72
2022/05/10 07:44:44;;;;;;;8.23;4.67;;;;;;;19.03;100.00;101454.66;1955970;73;21069;-72
2022/05/10 07:47:12;;;;;;;9.35;4.75;;;;;;;19.63;100.00;101442.57;1958055;73;21085;-72
2022/05/10 07:49:39;;;;;;;12.15;5.37;;;;;;;19.94;100.00;101428.77;1925339;73;21034;-73
2022/05/10 07:52:07;;;;;;;8.95;4.80;;;;;;;19.94;100.00;101428.77;1951018;72;21107;-72
2022/05/10 07:54:36;;;;;;;8.05;4.80;;;;;;;19.89;100.00;101431.95;1951292;72;21131;-72
2022/05/10 07:57:04;;;;;;;9.30;4.47;;;;;;;19.65;100.00;101429.50;1951239;72;21029;-73
2022/05/10 07:59:32;;;;;;;7.22;4.80;;;;;;;19.96;100.00;101434.82;1951304;73;21478;-73
2022/05/10 08:01:59;;;;;;;9.55;5.65;;;;;;;20.03;100.00;101439.47;1951447;72;21013;-71
2022/05/10 08:04:27;;;;;;;6.33;4.10;;;;;;;20.44;100.00;101434.52;1951073;72;21198;-71
2022/05/10 08:06:54;;;;;;;7.40;4.62;;;;;;;20.39;100.00;101433.80;1951543;72;21520;-73
2022/05/10 08:09:22;;;;;;;8.50;4.55;;;;;;;20.62;100.00;101436.64;1951212;72;21572;-73
2022/05/10 08:11:49;;;;;;;7.03;5.15;;;;;;;20.32;100.00;101428.72;1954476;72;21005;-71
2022/05/10 08:14:16;;;;;;;5.30;3.98;;;;;;;20.47;100.00;101427.91;1955866;72;21135;-71
2022/05/10 08:16:45;;;;;;;5.08;3.37;;;;;;;20.61;100.00;101427.54;1956046;72;21095;-71
2022/05/10 08:19:13;;;;;;;8.33;3.98;;;;;;;20.66;100.00;101424.34;1932036;72;21165;-71
2022/05/10 08:21:40;;;;;;;6.12;3.08;;;;;;;20.71;100.00;101417.70;1950891;72;21094;-71
2022/05/10 08:24:08;;;;;;;9.53;3.95;;;;;;;20.96;100.00;101431.38;1954338;72;21604;-71
2022/05/10 08:26:36;;;;;;;10.00;4.72;;;;;;;20.98;100.00;101433.52;1950961;72;20990;-71
2022/05/10 08:29:04;;;;;;;8.05;4.00;;;;;;;21.42;100.00;101425.69;1951627;73;21121;-71
2022/05/10 08:31:31;;;;;;;4.92;3.35;;;;;;;21.41;100.00;101426.13;1951169;72;21046;-71
2022/05/10 08:34:00;;;;;;;5.90;3.77;;;;;;;21.34;100.00;101424.61;1951471;72;20990;-71
2022/05/10 08:36:27;;;;;;;7.55;3.12;;;;;;;21.10;100.00;101433.16;1951255;72;21053;-71
2022/05/10 08:38:55;;;;;;;7.28;3.42;;;;;;;21.42;100.00;101433.53;1951304;72;21498;-71
2022/05/10 08:41:25;;;;;;;3.95;3.02;;;;;;;21.99;100.00;101430.88;1954970;72;21072;-71
2022/05/10 08:43:56;;;;;;;4.12;3.50;;;;;;;21.64;100.00;101427.17;1947852;73;21527;-71
2022/05/10 08:46:29;;;;;;;4.67;2.42;;;;;;;22.51;100.00;101430.84;1932416;73;21091;-71
2022/05/10 08:49:02;;;;;;;11.33;3.27;;;;;;;21.88;100.00;101429.92;1931165;73;21475;-71
2022/05/10 08:51:31;;;;;;;5.53;2.00;;;;;;;22.03;100.00;101431.17;1933085;73;21003;-71
2022/05/10 08:53:59;;;;;;;3.65;2.17;;;;;;;21.77;100.00;101425.05;1939536;74;21156;-71
2022/05/10 08:56:29;;;;;;;3.20;2.33;;;;;;;22.24;100.00;101430.89;1931888;73;21029;-71
2022/05/10 08:59:09;;;;;;;5.72;2.10;;;;;;;22.45;100.00;101434.11;1930197;73;21025;-72
2022/05/10 09:01:39;;;;;;;2.27;1.47;;;;;;;22.11;100.00;101434.38;1931830;73;21035;-73
2022/05/10 09:04:22;;;;;;;4.55;1.57;;;;;;;22.47;100.00;101438.41;1930405;73;21242;-73
2022/05/10 09:07:23;;;;;;;4.35;1.57;;;;;;;22.77;100.00;101438.67;1930951;73;21018;-73
2022/05/10 09:09:56;;;;;;;3.85;1.32;;;;;;;22.30;100.00;101433.76;1931442;73;21439;-73
2022/05/10 09:12:25;;;;;;;4.72;1.60;;;;;;;22.64;100.00;101431.27;1896417;72;21026;-73
2022/05/10 09:15:01;;;;;;;2.98;1.80;;;;;;;22.94;100.00;101431.05;1939538;74;21070;-73
2022/05/10 09:17:31;;;;;;;2.42;1.52;;;;;;;23.28;100.00;101433.28;1939646;72;21035;-73
2022/05/10 09:19:59;;;;;;;3.65;1.20;;;;;;;23.44;100.00;101433.58;1939631;74;21544;-73
2022/05/10 09:22:39;;;;;;;2.30;1.50;;;;;;;22.89;100.00;101434.31;1939771;72;21053;-73
2022/05/10 09:25:31;;;;;;;3.50;1.60;;;;;;;23.33;100.00;101428.73;1939583;74;21439;-73
2022/05/10 09:28:01;;;;;;;3.37;1.67;;;;;;;23.65;100.00;101420.06;1939246;73;21078;-73
2022/05/10 09:30:31;;;;;;;2.35;1.42;;;;;;;23.96;100.00;101422.70;1885214;74;21440;-73
2022/05/10 09:36:01;;;;;;;1.77;1.30;;;;;;;23.55;100.00;101435.32;1893192;74;21184;-73
2022/05/10 09:38:29;;;;;;;4.08;1.42;;;;;;;23.18;100.00;101434.96;1939354;73;21167;-73
2022/05/10 09:40:56;;;;;;;1.60;1.10;;;;;;;23.29;100.00;101438.47;1909942;74;21093;-73
2022/05/10 09:43:31;;;;;;;2.58;1.30;;;;;;;23.72;100.00;101428.53;1940457;72;21030;-74
2022/05/10 09:46:23;;;;;;;1.17;1.02;;;;;;;24.65;100.00;101426.83;1962579;72;21192;-73
2022/05/10 09:48:51;;;;;;;2.55;0.90;;;;;;;23.93;100.00;101421.54;1962844;73;21168;-73
2022/05/10 09:51:24;;;;;;;3.15;1.25;;;;;;;24.09;100.00;101420.86;1962672;72;21164;-73
2022/05/10 09:53:53;;;;;;;2.85;1.25;;;;;;;24.56;100.00;101420.20;1958157;72;21451;-74
2022/05/10 09:56:40;;;;;;;2.47;1.27;;;;;;;24.54;100.00;101422.89;1962882;71;21587;-74
2022/05/10 09:59:14;;;;;;;2.40;1.10;;;;;;;24.55;100.00;101422.45;1963095;71;21029;-74
2022/05/10 10:01:45;;;;;;;;;;;;;;;24.51;100.00;101416.48;1965847;73;21062;-74
2022/05/10 10:04:36;;;;;;;2.52;1.10;;;;;;;24.39;100.00;101419.63;1962921;72;20237;-73
2022/05/10 10:07:16;;;;;;;3.45;1.55;;;;;;;23.88;100.00;101416.92;1962739;72;21069;-73
2022/05/10 10:09:44;;;;;;;2.75;1.15;;;;;;;24.09;100.00;101420.86;1959123;72;21124;-73
2022/05/10 10:12:36;;;;;;;2.75;0.95;;;;;;;23.41;100.00;101421.45;1961051;72;21075;-73
2022/05/10 10:15:25;;;;;;;2.17;0.65;;;;;;;23.82;100.00;101419.83;1963029;71;21124;-74
2022/05/10 10:17:58;;;;;;;1.32;1.00;;;;;;;24.58;100.00;101415.27;1962910;72;21178;-74
2022/05/10 10:20:44;;;;;;;1.32;1.02;;;;;;;24.58;100.00;101418.38;1962995;71;21124;-74
2022/05/10 10:23:32;;;;;;;1.07;0.82;;;;;;;24.30;100.00;101413.03;1962974;73;21041;-74
2022/05/10 10:26:02;;;;;;;1.27;0.93;;;;;;;25.16;100.00;101416.63;1962830;73;21514;-74
2022/05/10 10:28:36;;;;;;;2.92;1.07;;;;;;;25.27;100.00;101418.73;1962090;72;21124;-74
2022/05/10 10:31:04;;;;;;;;;;;;;;;25.66;100.00;101406.39;1964897;73;21083;-74
2022/05/10 10:33:43;;;;;;;2.30;1.00;;;;;;;25.12;100.00;101415.93;1962947;73;20206;-73
2022/05/10 10:36:13;;;;;;;1.42;0.68;;;;;;;24.01;100.00;101413.78;1962907;72;21069;-73
2022/05/10 10:38:59;;;;;;;5.42;1.42;;;;;;;24.48;100.00;101407.43;1962967;73;21114;-74
2022/05/10 10:41:32;;;;;;;1.92;1.10;;;;;;;25.23;100.00;101401.40;1961972;72;21043;-73
2022/05/10 10:44:07;;;;;;;3.12;0.80;;;;;;;25.51;100.00;101398.29;1958330;72;21003;-74
2022/05/10 10:46:38;;;;;;;1.60;0.62;;;;;;;25.31;100.00;101401.05;1962281;73;21026;-74
2022/05/10 10:49:11;;;;;;;5.05;1.40;;;;;;;25.28;100.00;101403.37;1922650;73;21057;-73
2022/05/10 10:51:38;;;;;;;2.10;0.75;;;;;;;25.61;100.00;101396.54;1924683;71;21034;-73
2022/05/10 10:54:07;;;;;;;0.68;0.68;;;;;;;23.88;100.00;101394.62;1962579;72;21108;-74
2022/05/10 10:57:08;;;;;;;1.80;0.88;;;;;;;24.03;100.00;101396.21;1960560;72;21436;-73
2022/05/10 11:00:03;;;;;;;1.20;0.85;;;;;;;25.15;100.00;101399.60;1962893;72;21026;-73
2022/05/10 11:02:42;;;;;;;3.30;0.95;;;;;;;24.68;100.00;101405.20;1925944;73;21080;-74
2022/05/10 11:05:22;;;;;;;3.47;1.77;;;;;;;24.31;100.00;101399.84;1962946;73;21066;-73
2022/05/10 11:07:59;;;;;;;2.62;0.90;;;;;;;24.07;100.00;101397.34;1962575;71;21111;-74
2022/05/10 11:10:52;;;;;;;1.00;0.82;;;;;;;25.37;100.00;101399.41;1962547;73;21106;-74
2022/05/10 11:13:38;;;;;;;2.05;0.98;;;;;;;24.47;100.00;101405.25;1961174;72;21029;-73
2022/05/10 11:16:15;;;;;;;3.17;0.88;;;;;;;23.58;100.00;101403.70;1955810;72;21136;-73
2022/05/10 11:19:02;;;;;;;4.95;1.15;;;;;;;23.80;100.00;101403.27;1925384;73;21006;-73
2022/05/10 11:21:50;;;;;;;2.12;0.78;;;;;;;24.75;100.00;101399.20;1963091;72;21033;-73
2022/05/10 11:24:43;;;;;;;1.20;0.85;;;;;;;25.03;100.00;101391.85;1962959;73;21119;-74
2022/05/10 11:27:20;;;;;;;2.30;0.68;;;;;;;25.24;100.00;101390.81;1962826;72;21158;-74
2022/05/10 11:30:02;;;;;;;3.30;0.68;;;;;;;24.87;100.00;101386.00;1959324;72;21029;-73
2022/05/10 11:32:48;;;;;;;1.42;0.90;;;;;;;24.48;100.00;101395.61;1922475;73;21463;-73
2022/05/10 11:35:34;;;;;;;2.62;1.10;;;;;;;23.23;100.00;101395.92;1923445;73;21474;-73
2022/05/10 11:38:09;;;;;;;3.30;0.90;;;;;;;22.87;100.00;101395.95;1925200;73;21154;-73
2022/05/10 11:41:05;;;;;;;2.45;1.15;;;;;;;22.62;100.00;101395.12;1913680;73;21091;-73
2022/05/10 11:43:39;;;;;;;1.92;1.10;;;;;;;22.39;100.00;101394.62;1960819;72;21458;-73
2022/05/10 11:46:32;;;;;;;1.80;1.00;;;;;;;21.76;100.00;101396.73;1935906;73;21073;-73